KMDH Weather | Aviation | SIU

Home
Southern Illinois University

CONTACT

SIU.EDU

Aviation - Weather

College of Applied Sciences and Arts

KMDH Weather

NOTICE: Although all weather products are taken from the National Weather Service, this data should be used only as a supplement to a formal weather briefing.

Last Updated: Monday, September 25th, 2017, 8:43 pm
Information on this page is updated every 5 minutes.


METARS

KMDH 260052Z 00000KT 10SM CLR 23/19 A2993 RMK AO2 SLP132 T02280194

KMDH 252352Z 21004KT 10SM CLR 26/19 A2992 RMK AO2 SLP130 T02560189 10311 20256

KMDH 252252Z 22007KT 10SM CLR 29/18 A2991 RMK AO2 SLP126 T02940183

KMWA 260135Z AUTO 00000KT 10SM CLR 25/18 A2996 RMK AO2

KMWA 260115Z AUTO 00000KT 10SM CLR 26/18 A2995 RMK AO2

KMWA 260055Z AUTO 00000KT 10SM CLR 27/18 A2995 RMK AO2

KMWA 260035Z AUTO 00000KT 10SM CLR 27/18 A2994 RMK AO2

KMWA 260015Z AUTO 00000KT 10SM CLR 27/18 A2994 RMK AO2

KMWA 252345Z 18005KT 20SM SCT100 28/18 A2994

KMWA 252245Z 17006KT 20SM SCT100 32/16 A2993

KCGI 260053Z AUTO 00000KT 10SM CLR 23/17 A2992 RMK AO2 SLP129 T02330172

KCGI 252353Z AUTO 15004KT 10SM CLR 27/17 A2992 RMK AO2 SLP128 T02670172 10322

KCGI 252253Z AUTO 15006KT 10SM CLR 31/16 A2991 RMK AO2 SLP126 T03060161

KSAR 260135Z AUTO 15003KT 10SM CLR 25/17 A2995 RMK AO2 T02530167

KSAR 260115Z AUTO 15003KT 10SM CLR 26/17 A2995 RMK AO2 T02570167

KSAR 260055Z AUTO 00000KT 10SM CLR 26/17 A2994 RMK AO2 T02630166

KSAR 260035Z AUTO 15003KT 10SM CLR 27/17 A2994 RMK AO2 T02670166

KSAR 260015Z AUTO 16003KT 10SM CLR 28/17 A2994 RMK AO2 T02760165

KSAR 252355Z AUTO 15003KT 10SM CLR 28/16 A2993 RMK AO2 T02830162 10325 20283

KSAR 252335Z AUTO 16005KT 10SM CLR 29/16 A2993 RMK AO2 T02920160

KSAR 252315Z AUTO 16005KT 10SM CLR 30/16 A2993 RMK AO2 T03000160

KSAR 252255Z AUTO 19005KT 10SM CLR 31/15 A2993 RMK AO2 T03060154

KFAM 260056Z AUTO 17004KT 10SM CLR 25/17 A2995 RMK AO2 SLP135 T02500172

KFAM 252356Z AUTO 16004KT 10SM CLR 27/17 A2995 RMK AO2 SLP132 T02670172 10317

KFAM 252256Z AUTO 15009KT 10SM CLR 29/17 A2994 RMK AO2 SLP129 T02940172

KMVN 260056Z AUTO 00000KT 25/19 A2994 RMK AO2 SLP136 T02500189 PWINO $

KMVN 252356Z AUTO 00000KT 26/19 A2993 RMK AO2 SLP132 T02610189 10339 20261 55001

KMVN 252256Z AUTO 16003KT 31/18 A2992 RMK AO2 SLP128 T03110183 PWINO $

KHSB 260135Z AUTO 00000KT 10SM CLR 24/18 A2995 RMK AO2 T02350183

KCIR 260135Z AUTO 00000KT 10SM CLR 22/20 A2994 RMK AO2 T02170201

KPAH 260053Z 00000KT 10SM CLR 23/19 A2993 RMK AO2 SLP131 T02280189

KPOF 260053Z AUTO 00000KT 10SM CLR 24/19 A2992 RMK AO2 SLP127 T02390189

KFAM 260056Z AUTO 17004KT 10SM CLR 25/17 A2995 RMK AO2 SLP135 T02500172

KBLV 260056Z AUTO 00000KT 10SM CLR 26/17 A2991 RMK AO2 SLP128 T02550166

KSUS 260054Z 14004KT 10SM CLR 28/18 A2990 RMK AO2 SLP118 T02780178

KCPS 260053Z 16004KT 10SM CLR 27/16 A2991 RMK AO2 SLP125 T02670161

KSTL 260051Z 17008KT 10SM FEW090 29/17 A2992 RMK AO2 SLP120 T02940167

KTBN 260056Z AUTO 14006KT 10SM CLR 24/16 A2992 RMK AO2 SLP126 T02420157

KVIH 260053Z AUTO 16006KT 10SM CLR 24/16 A2994 RMK AO2 SLP128 T02440156

KENL 260135Z AUTO 00000KT 10SM CLR 22/18 A2994 RMK AO2 T02240176

KMTO 260053Z AUTO 19004KT 10SM CLR 27/16 A2994 RMK AO2 SLP131 T02720156

KFWC 260135Z AUTO 00000KT 10SM CLR 23/16 A2994 RMK AO1 T02260163

KCUL 260135Z AUTO 00000KT 10SM CLR 22/19 A2995 RMK AO2 T02240187

KEVV 260054Z 00000KT 10SM CLR 26/19 A2995 RMK AO2 SLP137 T02610189

KOWB 260056Z 00000KT 10SM CLR 26/20 A2995 RMK AO2 SLP149 T02560200

KEHR 260056Z AUTO 00000KT 10SM CLR 23/20 A2995 RMK AO2 SLP147 T02280200

KCEY 260135Z AUTO 00000KT 10SM CLR 23/19 A2996 RMK AO1

KHOP 260058Z 00000KT 10SM CLR 26/18 A2995 RMK AO2A SLP139 T02640182

KMKL 260053Z AUTO 00000KT 10SM CLR 23/21 A2994 RMK AO2 SLP134 T02280211

KDYR 260056Z AUTO 12003KT 10SM CLR 23/21 A2994 RMK AO2 SLP149 T02330206 PNO $

KBYH 252150Z 13005KT 10SM FEW055 31/16 A2991 RMK LAST

KARG 260135Z 13004KT 9SM CLR 24/19 A2992 RMK AO2 SLP299 PWINO FZRANO RVRNO

KJBR 260053Z AUTO 00000KT 10SM CLR 23/20 A2991 RMK AO2 SLP125 T02330200

KUNO 260053Z AUTO 15003KT 10SM CLR 25/17 A2996 RMK AO2 SLP132 T02500167

KALN 260050Z 17008KT 10SM SKC 26/18 A2992

KALN 260050Z 17008KT 10SM SKC 26/18 A2992

KCOU 260054Z 13003KT 10SM CLR 26/19 A2991 RMK AO2 SLP121 T02560194

KSPI 260052Z 19004KT 10SM CLR 26/17 A2992 RMK AO2 SLP126 T02610172

KAJG 260135Z AUTO 00000KT 10SM CLR 25/17 A2996 RMK AO2 T02450173

KM30 260135Z AUTO 00000KT 10SM CLR 22/20 A2996 RMK AO2 T02210197

KDEC 260054Z 16003KT 10SM CLR 26/17 A2994 RMK AO2 SLP132 T02610167

KIJX 260135Z AUTO 16004KT 10SM CLR 26/16 A2993 RMK AO2 T02570163


TAFS

KEVV 252320Z 2600/2624 00000KT P6SM SKC

        TEMPO 2610/2613 5SM BR

        FM261700 VRB03KT P6SM SCT050

KCGI 252320Z 2600/2624 14003KT P6SM SKC

        FM260900 00000KT 4SM BR BCFG FEW250

        FM261300 00000KT P6SM SKC

        FM261700 VRB03KT P6SM SCT050

KPAH 252320Z 2600/2624 00000KT P6SM SKC

        TEMPO 2609/2613 5SM BR

        FM261700 VRB03KT P6SM SCT050

KSPI 252333Z 2600/2624 17006KT P6SM SCT250

        FM261500 23006KT P6SM SCT050 BKN250

KSTL 252320Z 2600/2706 17006KT P6SM FEW060

        FM261500 23004KT P6SM FEW090

        FM262300 27004KT P6SM BKN060

        FM270200 32004KT P6SM SCT060 BKN120

KDEC 252333Z 2600/2624 16006KT P6SM SCT250

        FM261500 22006KT P6SM SCT050 BKN250

KOWB 252320Z 2600/2624 00000KT P6SM SKC

        FM261700 VRB04KT P6SM SCT050

KSUS 252320Z 2600/2624 16005KT P6SM FEW060

        FM261500 23004KT P6SM FEW090

        FM262200 27004KT P6SM BKN060

TAF KBLV 260000Z 2600/2706 20009KT 9999 FEW060 QNH2988INS WND 25009KT AFT 2614

        BECMG 2620/2621 VRB06KT 9999 BKN060 QNH2990INS TX33/2621Z TN17/2611Z


Winds Aloft

VALID 260000Z FOR USE 2000-0300Z. TEMPS NEG ABV 24000

FT 3000 6000 9000 12000 18000 24000 30000 34000 39000
CGI15081407+151410+091607+062112-073213-17292331292440322351
EVV14059900+169900+099900+062114-082017-18231632281740311751
SPI17111710+151905+092011+042412-082819-18262832281940302950
STL17111711+151810+081813+042311-072720-18272931272040293651



Pilot Reports

SPI UA /OV SPI270050/TM 2024/FL370/TP B737/TB INTMT MOD CHOP 370/RM AWC-WEB/
SPI UA /OV SPI170015/TM 2230/FL340/TP B738/TB CONT LGT CHOP/RM ZKC/FD1
MQB UA /OV SPI/TM 0028/FL350/TP B738/TB CONS LGT



Area Forecast

000

FAUS43 KKCI 260145

FA3W

CHIC FA 260145

SYNOPSIS AND VFR CLDS/WX

SYNOPSIS VALID UNTIL 262000

CLDS/WX VALID UNTIL 261400...OTLK VALID 261400-262000

ND SD NE KS MN IA MO WI LM LS MI LH IL IN KY

.

SEE AIRMET SIERRA FOR IFR CONDS AND MTN OBSCN.

TS IMPLY SEV OR GTR TURB SEV ICE LLWS AND IFR CONDS.

NON MSL HGTS DENOTED BY AGL OR CIG.

.

SYNOPSIS...DEEP UPR LVL TROF NWRN PLAINS/NRN-CNTRL FRONT RANGE

MOVING SLOLY NEWD THRU PD APCHG WRN MN-ERN PTNS ND SD-W CNTRL

PLAINS 18-20Z. OTRW..HI PRES ERN US WILL DMNT RMNDR THRU OTLK.

SSW FLOW WRN PTN BECMG CYCLONIC FLOW NW PTN DURG OTLK. WLY FLOW

ERN PTN. CDFNT WRN GREAT LAKES-NW MO BECMG STNR ERN KS-OK/TX

PNHDL BECMG CDFNT 10-12Z. CDFNT CNTRL GREAT LAKES-MID MS VLY-NW

AR-SE OK-SRN TX PLAINS LATE DURG OTLK. HI PRES RMNDR.

.

ND

W HLF...BKN035 OVC050 TOPS 140. OCNL VIS 3-5SM BR. ISOL -SHRA.

BECMG 0406 BKN030 OVC045. OCNL VIS 3-5SM BR. ISOL -SHRA.

OTLK...MVFR CIG SHRA BR.

E HLF...BKN030 BKN080 TOPS 160. BECMG 0507 BKN025 OVC040 LYRD

FL200. OCNL VIS 3-5SM BR. ISOL -SHRA. OTLK...MVFR CIG BR.

.

SD

W HLF...BKN050 TOPS 100. BECMG 0608 BKN060 OVC080 TOPS 140. OCNL

VIS 3-5SM BR. ISOL -SHRA. OTLK...VFR.

E HLF...BKN-OVC030 OVC045 LYRD FL180. OCNL VIS 3-5SM BR. ISOL

-SHRA. BECMG 0507 OVC020 TOPS 100. OCNL VIS 3-5SM BR.

OTLK...IFR CIG BR.

.

NE

PNHDL...BKN060 TOPS 090. OCNL VIS 3-5SM BR. BECMG 0507 BKN050.

OCNL VIS 3-5SM BR. OTLK...MVFR CIG BR.

RMNDR W HLF...BKN-OVC035 OVC050 TOPS 100. OCNL VIS 3-5SM BR.

ISOL -SHRA. OTLK...MVFR CIG RA BR.

E HLF...BKN-OVC015-025 OVC040 LYRD FL200. OCNL VIS 3-5SM BR.

WDLY SCT -SHRA. OTLK...IFR CIG RA BR.

.

KS

W HLF...BKN-OVC040 OVC060 TOPS 160. OCNL VIS 3-5SM BR. WDLY SCT

-SHRA. BECMG 0507 OVC035 TOPS 070. OCNL VIS 3-5SM BR. ISOL

-SHRA. OTLK...IFR CIG RA BR

E HLF...BKN025 BKN-OVC050 LYRD FL240. OCNL VIS 3-5SM BR. SCT

-SHRA/WDLY SCT -TSRA. CB TOP FL380. BECMG 0508 OVC015-025. SCT

-SHRA/ISOL -TSRA. CB TOP FL360. OTLK...IFR CIG SHRA BR.

.

MN

BKN-OVC010-020 OVC045 LYRD FL200. OCNL VIS 3-5SM BR. WDLY SCT

-SHRA. OTLK...IFR CIG SHRA BR.

.

IA

BKN-OVC015-025 OVC040 LYRD FL240. OCNL VIS 3-5SM BR. SCT

-SHRA/-TSRA. CB TOP FL370. BECMG 0609 OVC010-020 TOPS 160. OCNL

VIS 3-5SM BR. ISOL -SHRA. OTLK...IFR CIG SHRA BR.

.

MO

NW PTN...BKN040 TOPS 090. WDLY SCT -TSRA/-SHRA. CB TOP FL400.

BECMG 0507 BKN025 OVC045 LYRD FL220. OCNL VIS 3-5SM BR. WDLY

SCT -SHRA/ISOL -TSRA. CB TOP FL370. OTLK...MVFR CIG SHRA BR.

NE PTN...SCT050. ISOL -SHRA/-TSRA. CB TOP FL370. BECMG 0609

SCT045 BKN CI. OTLK...VFR.

S HLF...FEW-SCT040 SCT CI. OTLK...VFR.

.

WI

N HLF...BKN030 TOPS 080. OCNL VIS 3-5SM BR. ISOL -SHRA/-TSRA. CB

TOP FL370. BECMG 0608 BKN010-020 BKN060 LYRD FL200. OCNL VIS

3-5SM BR. WDLY SCT -SHRA. OTLK...MVFR CIG SHRA BR.

S HLF...SCT050 SCT CI. ISOL -TSRA/-SHRA. CB TOP FL370. BECMG

0508 SCT035 BKN050 TOPS 120. OCNL VIS 3-5SM BR. ISOL

-SHRA/-TSRA. OTLK...MVFR CIG SHRA BR.

.

LS UPR MI

OVC010-020 TOPS 160. OCNL VIS 3-5SM BR. WDLY SCT -SHRA/-TSRA. CB

TOP FL370. BECMG 0507 BKN-OVC010-015 TOPS 060. OCNL VIS 3-5SM BR.

OTLK...IFR CIG BR.

.

LM LWR MI LH

SKC OCNL SCT CI. OTLK...VFR.

.

IL

N HLF...FEW-SCT070. BECMG 0508 SCT060 SCT CI. OTLK...VFR.

S HLF...SKC OCNL SCT CI. OTLK...VFR.

.

IN

SKC OCNL SCT CI. OTLK...VFR.

.

KY

SKC OCNL SCT CI ERN PTN. OTLK...VFR.

....



Significant Weather

WAUS43 KKCI 252045 CHIT WA 252045 AIRMET TANGO UPDT 4 FOR TURB VALID UNTIL 260300 AIRMET TURB...MO LM MI IL IN KY AR TN LA MS AL AND CSTL WTRS FROM 30ESE GRR TO FWA TO CVG TO HMV TO GQO TO 30ENE CEW TO 40W CEW TO 130ESE LEV TO 70SSW LEV TO 40ESE LSU TO 30NNW DYR TO 60S AXC TO 50SE BAE TO 30ESE GRR MOD TURB BTN FL240 AND FL410. CONDS CONTG BYD 03Z THRU 09Z. OTLK VALID 0300-0900Z...TURB IL IN KY AR TN LA MS AL AND CSTL WTRS BOUNDED BY 20E GIJ-CVG-HNN-40WSW HMV-GQO-30NE CEW-40W CEW-130ESE LEV-60SSW LEV-50WSW LSU-50NW SQS-40ESE DYR-30ESE JOT-40SSW GIJ- 20E GIJ MOD TURB BTN FL240 AND FL410. CONDS CONTG THRU 09Z.
WAUS44 KKCI 252045 DFWT WA 252045 AIRMET TANGO UPDT 4 FOR TURB VALID UNTIL 260300 AIRMET TURB...AR TN LA MS AL MO LM MI IL IN KY AND CSTL WTRS FROM 30ESE GRR TO FWA TO CVG TO HMV TO GQO TO 30ENE CEW TO 40W CEW TO 130ESE LEV TO 70SSW LEV TO 40ESE LSU TO 30NNW DYR TO 60S AXC TO 50SE BAE TO 30ESE GRR MOD TURB BTN FL240 AND FL410. CONDS CONTG BYD 03Z THRU 09Z. OTLK VALID 0300-0900Z...TURB AR TN LA MS AL IL IN KY AND CSTL WTRS BOUNDED BY 20E GIJ-CVG-HNN-40WSW HMV-GQO-30NE CEW-40W CEW-130ESE LEV-60SSW LEV-50WSW LSU-50NW SQS-40ESE DYR-30ESE JOT-40SSW GIJ- 20E GIJ MOD TURB BTN FL240 AND FL410. CONDS CONTG THRU 09Z.